KDPG

Michael AAF (Dugway Proving Ground) Airport

Dugway Proving Ground, Utah, USA
METAR KDPG 212355Z 15005KT 40SM FEW065 FEW180 M04/M10 A3010 RMK SLP228 T10361099 11021 21073 56004 LAST
Observed Flight Rules
Feb-21 @ 23:55 UTC (5 hours ago) Visual Flight Rules
Wind Visibility Clouds
150° at 5 knots 40 miles
  • Few at 6,500' AGL
  • Few at 18,000' AGL
Temperatures Readings
Current -4°C / 25°F
Dewpoint -10°C / 14°F
Humidity 63%
Altimeter 30.1" Hg
Pressure 1022.8 hPa
Elevation 1326
METAR KDPG 212355Z 15005KT 40SM FEW065 FEW180 M04/M10 A3010 RMK SLP228 T10361099 11021 21073 56004 LAST
Observed Flight Rules
Feb-21 @ 23:55 UTC
(5 hours ago)
VFR
Wind Visibility
150° at 5 knots 40 miles
Clouds
  • Few at 6,500' AGL
  • Few at 18,000' AGL
Temperature Dewpoint
-4°C / 25°F -10°C / 14°F
Humidity Altimeter Pressure
63% 30.1" Hg 1022.8 hPa